Terminal Aerodrome Forecast
Issued by NWS Sterling, VA

Home | Current Version | Previous Version | Text Only | Print | Product List | Glossary On
Versions: 1 2 3 4 5 6 7 8 9 10 11 12 13 14 15 16 17
000
FTUS41 KLWX 281500 AAA
TAFBWI
TAF AMD
KBWI 281500Z 2815/2918 21003KT P6SM BKN060 OVC120
     FM282100 30007KT 5SM -SHRA OVC050
     FM290100 31004KT P6SM SCT020 OVC045=

USA.gov is the U.S. government's official web portal to all federal, state and local government web resources and services.